Time;durP1;ratioP1;P1;durP2;ratioP2;P2;SDS_P1;SDS_P2;PMS_P1;PMS_P2;Temp;Humidity;BMP_temperature;BMP_pressure;BME280_temperature;BME280_humidity;BME280_pressure;Samples;Min_cycle;Max_cycle;Signal;HPM_P1;HPM_P2
2022/07/25 00:01:12;;;;;;;;;;;24.50;74.90;;;;;;5038615;28;19979;-80
2022/07/25 00:03:39;;;;;;;;;;;24.40;74.90;;;;;;5038319;28;19956;-81
2022/07/25 00:06:06;;;;;;;;;;;24.40;75.00;;;;;;5042054;28;20378;-80
2022/07/25 00:08:33;;;;;;;;;;;24.40;75.00;;;;;;5037078;28;19928;-80
2022/07/25 00:11:01;;;;;;;;;;;24.40;75.10;;;;;;5042378;28;20383;-80
2022/07/25 00:13:28;;;;;;;;;;;24.30;75.10;;;;;;5040134;28;19974;-80
2022/07/25 00:15:54;;;;;;;;;;;24.30;75.10;;;;;;5041867;28;20450;-80
2022/07/25 00:18:21;;;;;;;;;;;24.30;75.20;;;;;;5037243;28;19929;-80
2022/07/25 00:20:48;;;;;;;;;;;24.20;75.20;;;;;;5040671;28;20300;-79
2022/07/25 00:23:15;;;;;;;;;;;24.20;75.20;;;;;;5043245;28;19974;-80
2022/07/25 00:25:42;;;;;;;;;;;24.10;75.20;;;;;;5044571;28;19924;-81
2022/07/25 00:28:10;;;;;;;;;;;24.10;75.20;;;;;;5046159;28;19928;-80
2022/07/25 00:30:37;;;;;;;;;;;24.10;75.40;;;;;;5037892;28;20365;-80
2022/07/25 00:33:03;;;;;;;;;;;24.10;75.50;;;;;;5046778;28;20023;-80
2022/07/25 00:35:30;;;;;;;;;;;24.00;75.50;;;;;;5045627;28;20032;-80
2022/07/25 00:37:57;;;;;;;;;;;24.00;75.00;;;;;;5047125;28;20123;-80
2022/07/25 00:40:24;;;;;;;;;;;24.00;75.60;;;;;;5040724;28;19926;-80
2022/07/25 00:42:51;;;;;;;;;;;24.00;75.60;;;;;;5045454;28;19924;-80
2022/07/25 00:45:19;;;;;;;;;;;23.90;75.60;;;;;;5042925;28;19933;-80
2022/07/25 00:47:46;;;;;;;;;;;23.90;75.60;;;;;;5049378;28;19957;-80
2022/07/25 00:50:13;;;;;;;;;;;23.90;75.80;;;;;;5042754;28;19929;-80
2022/07/25 00:52:39;;;;;;;;;;;23.80;75.70;;;;;;5040129;28;19929;-80
2022/07/25 00:55:07;;;;;;;;;;;23.80;75.80;;;;;;5040422;28;20462;-80
2022/07/25 00:57:33;;;;;;;;;;;23.80;75.80;;;;;;5037203;28;19928;-80
2022/07/25 01:00:00;;;;;;;;;;;23.80;75.80;;;;;;5039700;28;19931;-80
2022/07/25 01:02:29;;;;;;;;;;;23.70;75.70;;;;;;5034647;28;19924;-80
2022/07/25 01:04:56;;;;;;;;;;;23.70;75.70;;;;;;5039601;28;19995;-80
2022/07/25 01:07:23;;;;;;;;;;;23.60;75.60;;;;;;5038863;28;19933;-80
2022/07/25 01:09:50;;;;;;;;;;;23.60;75.70;;;;;;5033991;28;19987;-79
2022/07/25 01:12:17;;;;;;;;;;;23.60;75.80;;;;;;5033383;28;19956;-80
2022/07/25 01:14:44;;;;;;;;;;;23.60;75.80;;;;;;5034143;28;19933;-79
2022/07/25 01:17:12;;;;;;;;;;;23.50;75.70;;;;;;5036095;28;20055;-80
2022/07/25 01:19:39;;;;;;;;;;;;;;;;;;4972900;28;1853503;-79
2022/07/25 01:22:07;;;;;;;;;;;23.50;75.20;;;;;;5036893;28;19929;-80
2022/07/25 01:24:34;;;;;;;;;;;23.40;75.70;;;;;;5035503;28;19933;-80
2022/07/25 01:27:01;;;;;;;;;;;23.40;75.70;;;;;;5034247;28;19925;-80
2022/07/25 01:29:28;;;;;;;;;;;23.40;75.70;;;;;;5038707;28;19932;-80
2022/07/25 01:31:55;;;;;;;;;;;23.30;75.70;;;;;;5032613;28;19979;-79
2022/07/25 01:34:22;;;;;;;;;;;23.30;75.80;;;;;;5035610;28;19928;-79
2022/07/25 01:36:48;;;;;;;;;;;23.30;75.90;;;;;;5036666;28;19928;-80
2022/07/25 01:39:17;;;;;;;;;;;23.20;75.90;;;;;;5039460;28;19955;-79
2022/07/25 01:41:43;;;;;;;;;;;23.20;76.00;;;;;;5039685;28;19947;-80
2022/07/25 01:44:10;;;;;;;;;;;23.20;76.00;;;;;;5036175;28;19976;-80
2022/07/25 01:46:37;;;;;;;;;;;23.20;76.10;;;;;;5037268;28;20439;-80
2022/07/25 01:49:04;;;;;;;;;;;23.10;76.00;;;;;;5038708;28;19932;-80
2022/07/25 01:51:31;;;;;;;;;;;23.10;76.10;;;;;;5041195;28;19978;-79
2022/07/25 01:53:59;;;;;;;;;;;23.10;76.10;;;;;;5040532;28;19984;-79
2022/07/25 01:56:27;;;;;;;;;;;23.10;76.20;;;;;;5043091;28;19929;-79
2022/07/25 01:58:54;;;;;;;;;;;23.00;76.10;;;;;;5040890;28;19933;-79
2022/07/25 02:01:21;;;;;;;;;;;23.00;76.20;;;;;;5043154;28;19939;-80
2022/07/25 02:03:48;;;;;;;;;;;23.00;76.20;;;;;;5037255;28;19984;-79
2022/07/25 02:06:15;;;;;;;;;;;23.00;76.20;;;;;;5039332;28;20694;-80
2022/07/25 02:08:41;;;;;;;;;;;22.90;76.20;;;;;;5039415;28;19967;-80
2022/07/25 02:11:08;;;;;;;;;;;22.90;76.30;;;;;;5036344;28;19968;-79
2022/07/25 02:13:37;;;;;;;;;;;22.90;76.40;;;;;;5038529;28;19925;-80
2022/07/25 02:16:05;;;;;;;;;;;22.90;76.40;;;;;;5038821;28;19925;-79
2022/07/25 02:18:32;;;;;;;;;;;22.80;76.40;;;;;;5037216;28;19955;-80
2022/07/25 02:20:59;;;;;;;;;;;22.80;76.40;;;;;;5054368;28;20184;-80
2022/07/25 02:23:26;;;;;;;;;;;22.80;76.40;;;;;;5047445;28;19932;-80
2022/07/25 02:25:53;;;;;;;;;;;22.70;76.40;;;;;;5055959;28;19947;-79
2022/07/25 02:28:19;;;;;;;;;;;22.70;76.40;;;;;;5048711;28;20544;-79
2022/07/25 02:30:48;;;;;;;;;;;22.70;76.50;;;;;;5042594;28;19929;-80
2022/07/25 02:33:14;;;;;;;;;;;22.70;76.60;;;;;;5049923;28;19960;-80
2022/07/25 02:35:41;;;;;;;;;;;22.60;76.50;;;;;;5039669;28;19924;-79
2022/07/25 02:38:09;;;;;;;;;;;22.60;76.70;;;;;;5043330;28;19929;-79
2022/07/25 02:40:36;;;;;;;;;;;22.60;76.70;;;;;;5036281;28;19925;-79
2022/07/25 02:43:03;;;;;;;;;;;22.60;76.70;;;;;;5040182;28;20444;-80
2022/07/25 02:45:30;;;;;;;;;;;22.50;76.70;;;;;;5039089;28;19932;-80
2022/07/25 02:47:58;;;;;;;;;;;22.50;76.70;;;;;;5041129;28;19964;-79
2022/07/25 02:50:25;;;;;;;;;;;22.50;76.80;;;;;;5042400;28;19963;-80
2022/07/25 02:52:52;;;;;;;;;;;22.50;76.80;;;;;;5043670;28;19925;-79
2022/07/25 02:55:19;;;;;;;;;;;22.40;76.80;;;;;;5040415;28;19978;-79
2022/07/25 02:57:46;;;;;;;;;;;22.40;76.80;;;;;;5050544;28;20280;-80
2022/07/25 03:00:14;;;;;;;;;;;22.40;76.90;;;;;;5038382;28;20023;-80
2022/07/25 03:02:41;;;;;;;;;;;22.40;77.00;;;;;;5058434;28;20195;-79
2022/07/25 03:05:10;;;;;;;;;;;22.40;77.00;;;;;;5042441;28;19929;-80
2022/07/25 03:07:38;;;;;;;;;;;22.30;77.00;;;;;;5042402;28;19928;-80
2022/07/25 03:10:06;;;;;;;;;;;22.30;77.00;;;;;;5039905;28;20011;-80
2022/07/25 03:12:32;;;;;;;;;;;22.30;77.00;;;;;;5037360;28;19976;-80
2022/07/25 03:14:59;;;;;;;;;;;22.20;77.00;;;;;;5041378;28;19925;-80
2022/07/25 03:17:27;;;;;;;;;;;22.20;77.00;;;;;;5046948;28;19925;-80
2022/07/25 03:19:54;;;;;;;;;;;22.20;77.10;;;;;;5043284;28;19940;-80
2022/07/25 03:22:25;;;;;;;;;;;22.20;77.10;;;;;;5039601;28;19925;-79
2022/07/25 03:24:52;;;;;;;;;;;22.20;77.20;;;;;;5042408;28;19924;-79
2022/07/25 03:27:19;;;;;;;;;;;22.10;77.10;;;;;;5052863;28;20558;-80
2022/07/25 03:29:46;;;;;;;;;;;22.10;77.20;;;;;;5039981;28;19931;-80
2022/07/25 03:32:13;;;;;;;;;;;22.10;77.30;;;;;;5047294;28;19948;-80
2022/07/25 03:34:39;;;;;;;;;;;22.00;77.30;;;;;;5050206;28;19925;-80
2022/07/25 03:37:09;;;;;;;;;;;22.00;77.30;;;;;;5041738;28;19929;-80
2022/07/25 03:39:37;;;;;;;;;;;22.00;77.30;;;;;;5043378;28;19953;-80
2022/07/25 03:42:04;;;;;;;;;;;22.00;77.40;;;;;;5056697;28;19982;-79
2022/07/25 03:44:31;;;;;;;;;;;21.90;77.30;;;;;;5053483;28;19982;-79
2022/07/25 03:46:58;;;;;;;;;;;21.90;77.40;;;;;;5049453;28;19925;-80
2022/07/25 03:49:24;;;;;;;;;;;21.90;77.30;;;;;;5054457;28;20014;-80
2022/07/25 03:51:51;;;;;;;;;;;21.90;77.40;;;;;;5049384;28;19932;-80
2022/07/25 03:54:18;;;;;;;;;;;21.90;77.40;;;;;;5039831;28;19982;-80
2022/07/25 03:56:47;;;;;;;;;;;21.80;77.40;;;;;;5038464;28;19924;-80
2022/07/25 03:59:15;;;;;;;;;;;21.80;77.70;;;;;;5047032;28;20834;-80
2022/07/25 04:01:42;;;;;;;;;;;21.80;78.10;;;;;;5053335;28;20008;-80
2022/07/25 04:04:09;;;;;;;;;;;21.80;78.20;;;;;;5050116;28;20024;-80
2022/07/25 04:06:37;;;;;;;;;;;21.80;78.30;;;;;;5054576;28;20066;-79
2022/07/25 04:09:04;;;;;;;;;;;21.70;78.20;;;;;;5060063;28;19947;-80
2022/07/25 04:11:31;;;;;;;;;;;21.70;78.10;;;;;;5054695;28;20326;-80
2022/07/25 04:13:59;;;;;;;;;;;21.70;78.30;;;;;;5049549;28;19974;-80
2022/07/25 04:16:26;;;;;;;;;;;21.60;78.30;;;;;;5046073;28;19925;-80
2022/07/25 04:18:55;;;;;;;;;;;21.60;78.40;;;;;;5050479;28;19932;-80
2022/07/25 04:21:21;;;;;;;;;;;21.60;78.30;;;;;;5041994;28;19987;-80
2022/07/25 04:23:49;;;;;;;;;;;21.50;78.30;;;;;;5040011;28;20345;-80
2022/07/25 04:26:16;;;;;;;;;;;21.50;78.40;;;;;;5048074;28;19929;-80
2022/07/25 04:28:43;;;;;;;;;;;21.50;78.60;;;;;;5044573;28;20022;-80
2022/07/25 04:31:11;;;;;;;;;;;21.50;78.50;;;;;;5045905;28;19925;-80
2022/07/25 04:33:38;;;;;;;;;;;21.50;78.60;;;;;;5051532;28;19929;-81
2022/07/25 04:36:05;;;;;;;;;;;21.40;78.60;;;;;;5058113;28;19936;-81
2022/07/25 04:38:32;;;;;;;;;;;21.40;78.80;;;;;;5054443;28;19925;-81
2022/07/25 04:40:59;;;;;;;;;;;21.40;78.70;;;;;;5042594;28;19936;-80
2022/07/25 04:43:26;;;;;;;;;;;21.40;78.70;;;;;;5054819;28;19925;-80
2022/07/25 04:45:52;;;;;;;;;;;21.40;78.70;;;;;;5045884;28;19933;-81
2022/07/25 04:48:21;;;;;;;;;;;21.40;78.80;;;;;;5044726;28;20189;-81
2022/07/25 04:50:48;;;;;;;;;;;21.30;78.90;;;;;;5042115;28;19933;-81
2022/07/25 04:53:15;;;;;;;;;;;21.30;78.80;;;;;;5045924;28;19932;-79
2022/07/25 04:55:41;;;;;;;;;;;21.30;78.60;;;;;;5041240;28;20003;-78
2022/07/25 04:58:08;;;;;;;;;;;21.20;78.80;;;;;;5048201;28;19947;-78
2022/07/25 05:00:35;;;;;;;;;;;21.20;78.50;;;;;;5033189;28;19929;-79
2022/07/25 05:03:02;;;;;;;;;;;21.20;78.70;;;;;;5046987;28;19940;-79
2022/07/25 05:05:30;;;;;;;;;;;21.20;78.70;;;;;;5043341;28;19929;-80
2022/07/25 05:07:58;;;;;;;;;;;21.20;78.70;;;;;;5050926;28;19944;-80
2022/07/25 05:10:25;;;;;;;;;;;21.20;78.60;;;;;;5050628;28;20307;-79
2022/07/25 05:12:52;;;;;;;;;;;21.10;78.50;;;;;;5041756;28;19960;-79
2022/07/25 05:15:19;;;;;;;;;;;21.10;78.40;;;;;;5046804;28;19932;-80
2022/07/25 05:17:47;;;;;;;;;;;21.10;78.60;;;;;;5044647;28;20035;-81
2022/07/25 05:20:14;;;;;;;;;;;21.10;78.90;;;;;;5065647;22;20455;-80
2022/07/25 05:22:42;;;;;;;;;;;21.10;79.20;;;;;;5038484;28;19933;-79
2022/07/25 05:25:10;;;;;;;;;;;21.10;79.40;;;;;;5056682;28;19925;-77
2022/07/25 05:27:37;;;;;;;;;;;21.10;79.40;;;;;;5066117;28;19924;-77
2022/07/25 05:30:08;;;;;;;;;;;21.00;80.30;;;;;;5058513;28;19954;-78
2022/07/25 05:32:34;;;;;;;;;;;20.80;80.60;;;;;;5056898;28;20093;-77
2022/07/25 05:35:01;;;;;;;;;;;20.80;80.80;;;;;;5036478;28;19925;-76
2022/07/25 05:37:28;;;;;;;;;;;20.90;81.30;;;;;;5060763;28;19928;-77
2022/07/25 05:39:56;;;;;;;;;;;20.90;80.30;;;;;;5062443;28;20404;-77
2022/07/25 05:42:23;;;;;;;;;;;20.80;80.80;;;;;;5062739;28;20376;-76
2022/07/25 05:44:50;;;;;;;;;;;20.80;80.90;;;;;;5047152;28;19928;-76
2022/07/25 05:47:17;;;;;;;;;;;20.80;80.60;;;;;;5067844;28;19935;-76
2022/07/25 05:49:44;;;;;;;;;;;20.80;80.60;;;;;;5062944;28;19970;-77
2022/07/25 05:52:11;;;;;;;;;;;20.80;80.50;;;;;;5063845;28;20015;-76
2022/07/25 05:54:38;;;;;;;;;;;20.80;80.50;;;;;;5061813;28;19932;-77
2022/07/25 05:57:06;;;;;;;;;;;20.80;80.80;;;;;;5058631;28;20016;-77
2022/07/25 05:59:33;;;;;;;;;;;20.80;80.70;;;;;;5058326;28;19925;-77
2022/07/25 06:02:00;;;;;;;;;;;20.80;80.70;;;;;;5063927;28;19932;-78
2022/07/25 06:04:27;;;;;;;;;;;20.80;80.70;;;;;;5061017;28;19987;-78
2022/07/25 06:06:54;;;;;;;;;;;20.80;80.60;;;;;;5063645;28;20027;-77
2022/07/25 06:09:21;;;;;;;;;;;20.80;80.70;;;;;;5066652;28;19929;-77
2022/07/25 06:11:49;;;;;;;;;;;20.80;80.80;;;;;;5063815;28;19924;-77
2022/07/25 06:14:17;;;;;;;;;;;20.80;81.00;;;;;;5066040;28;19929;-77
2022/07/25 06:16:44;;;;;;;;;;;20.80;81.20;;;;;;5059598;28;19956;-77
2022/07/25 06:19:11;;;;;;;;;;;20.80;81.20;;;;;;5068111;28;19986;-77
2022/07/25 06:21:37;;;;;;;;;;;20.90;81.20;;;;;;5063266;28;20387;-77
2022/07/25 06:24:04;;;;;;;;;;;20.90;81.20;;;;;;5061777;28;20319;-77
2022/07/25 06:26:31;;;;;;;;;;;20.90;81.20;;;;;;5051143;28;19931;-77
2022/07/25 06:28:58;;;;;;;;;;;20.90;81.20;;;;;;5064516;28;19932;-78
2022/07/25 06:31:26;;;;;;;;;;;20.90;81.30;;;;;;5064476;28;19956;-77
2022/07/25 06:33:53;;;;;;;;;;;21.00;81.30;;;;;;5059562;28;19924;-77
2022/07/25 06:36:20;;;;;;;;;;;21.00;81.40;;;;;;5064021;28;19981;-77
2022/07/25 06:38:47;;;;;;;;;;;21.00;81.50;;;;;;5044584;28;19985;-77
2022/07/25 06:41:15;;;;;;;;;;;21.00;81.60;;;;;;5057715;28;19925;-76
2022/07/25 06:43:42;;;;;;;;;;;21.10;81.70;;;;;;5059960;28;20015;-78
2022/07/25 06:46:09;;;;;;;;;;;21.10;81.70;;;;;;5046996;28;19928;-78
2022/07/25 06:48:37;;;;;;;;;;;21.10;81.80;;;;;;5063151;28;20021;-79
2022/07/25 06:51:04;;;;;;;;;;;21.10;81.90;;;;;;5060725;28;20019;-77
2022/07/25 06:53:31;;;;;;;;;;;21.10;82.00;;;;;;5063269;28;20353;-77
2022/07/25 06:55:58;;;;;;;;;;;21.10;82.00;;;;;;5064705;28;19925;-77
2022/07/25 06:58:25;;;;;;;;;;;21.20;82.30;;;;;;5066652;28;19955;-78
2022/07/25 07:00:52;;;;;;;;;;;21.20;82.50;;;;;;5058952;28;19979;-77
2022/07/25 07:03:19;;;;;;;;;;;21.20;82.70;;;;;;5060581;28;19924;-78
2022/07/25 07:05:47;;;;;;;;;;;21.30;82.90;;;;;;5062424;28;19925;-77
2022/07/25 07:08:14;;;;;;;;;;;21.30;83.10;;;;;;5064782;28;19933;-77
2022/07/25 07:10:41;;;;;;;;;;;21.30;83.20;;;;;;5064376;28;19951;-79
2022/07/25 07:13:09;;;;;;;;;;;21.30;83.20;;;;;;5062088;28;19967;-77
2022/07/25 07:15:37;;;;;;;;;;;21.30;83.30;;;;;;5059851;28;20477;-76
2022/07/25 07:18:04;;;;;;;;;;;21.40;83.40;;;;;;5060407;28;20399;-77
2022/07/25 07:20:30;;;;;;;;;;;21.40;83.40;;;;;;5062058;28;20167;-77
2022/07/25 07:22:59;;;;;;;;;;;21.40;83.50;;;;;;5065839;28;19954;-77
2022/07/25 07:25:25;;;;;;;;;;;21.40;83.60;;;;;;5054929;28;19924;-78
2022/07/25 07:27:52;;;;;;;;;;;21.50;83.70;;;;;;5062628;28;19983;-76
2022/07/25 07:30:19;;;;;;;;;;;21.50;83.70;;;;;;5061728;28;19928;-78
2022/07/25 07:32:46;;;;;;;;;;;21.50;83.80;;;;;;5056224;28;19924;-78
2022/07/25 07:35:15;;;;;;;;;;;21.50;83.70;;;;;;5049518;28;19986;-79
2022/07/25 07:37:42;;;;;;;;;;;21.60;83.90;;;;;;5049971;28;19935;-80
2022/07/25 07:40:14;;;;;;;;;;;21.60;84.00;;;;;;5058591;22;19951;-93
2022/07/25 07:42:41;;;;;;;;;;;21.60;83.90;;;;;;5107957;28;19930;-91
2022/07/25 07:45:12;;;;;;;;;;;21.60;83.80;;;;;;5111571;28;19929;-91
2022/07/25 07:47:39;;;;;;;;;;;21.60;83.80;;;;;;5102687;28;19955;-92
2022/07/25 07:50:07;;;;;;;;;;;21.60;83.80;;;;;;5040646;28;19956;-91
2022/07/25 07:52:34;;;;;;;;;;;21.60;83.80;;;;;;5073589;28;20079;-93
2022/07/25 07:57:47;;;;;;;;;;;21.70;83.80;;;;;;5054304;27;19927;-93
2022/07/25 08:00:15;;;;;;;;;;;21.70;83.80;;;;;;5107150;28;19929;-92
2022/07/25 08:02:43;;;;;;;;;;;21.70;83.90;;;;;;5057953;28;19928;-91
2022/07/25 08:05:10;;;;;;;;;;;21.80;83.90;;;;;;5101608;28;19925;-93
2022/07/25 08:07:37;;;;;;;;;;;21.80;84.00;;;;;;5111709;28;19939;-94
2022/07/25 08:10:04;;;;;;;;;;;21.80;83.90;;;;;;5068753;28;20301;-94
2022/07/25 08:12:31;;;;;;;;;;;21.80;83.80;;;;;;5076803;27;19956;-93
2022/07/25 08:15:00;;;;;;;;;;;21.80;83.90;;;;;;5049992;27;19949;-92
2022/07/25 08:17:27;;;;;;;;;;;21.80;84.00;;;;;;5074597;27;19991;-93
2022/07/25 08:19:54;;;;;;;;;;;21.80;84.10;;;;;;5120916;27;19913;-94
2022/07/25 08:22:21;;;;;;;;;;;21.90;84.20;;;;;;5104432;27;19970;-94
2022/07/25 08:24:48;;;;;;;;;;;21.90;84.90;;;;;;5045786;27;19984;-92
2022/07/25 08:27:15;;;;;;;;;;;21.80;84.30;;;;;;5072350;27;19924;-93
2022/07/25 08:29:42;;;;;;;;;;;21.90;84.50;;;;;;5049324;28;20069;-94
2022/07/25 08:32:10;;;;;;;;;;;21.90;84.90;;;;;;5049972;27;19933;-92
2022/07/25 08:34:37;;;;;;;;;;;21.90;84.80;;;;;;5110016;27;20001;-93
2022/07/25 08:37:04;;;;;;;;;;;21.90;84.60;;;;;;5053847;27;19943;-93
2022/07/25 08:39:31;;;;;;;;;;;22.00;85.00;;;;;;5106977;28;19929;-93
2022/07/25 08:41:59;;;;;;;;;;;21.90;84.70;;;;;;5056573;27;19925;-93
2022/07/25 08:44:29;;;;;;;;;;;22.00;84.90;;;;;;5046556;27;19947;-92
2022/07/25 08:46:57;;;;;;;;;;;22.00;85.00;;;;;;5044333;28;19925;-93
2022/07/25 08:49:27;;;;;;;;;;;22.00;85.10;;;;;;5064329;27;20024;-92
2022/07/25 08:51:55;;;;;;;;;;;22.00;85.20;;;;;;5076279;27;19974;-92
2022/07/25 08:54:23;;;;;;;;;;;22.10;85.70;;;;;;5039012;28;19957;-93
2022/07/25 08:56:50;;;;;;;;;;;22.10;85.40;;;;;;5108729;28;19951;-92
2022/07/25 08:59:17;;;;;;;;;;;22.10;85.80;;;;;;5092106;28;19940;-94
2022/07/25 09:01:44;;;;;;;;;;;22.10;86.20;;;;;;5054503;27;20239;-93
2022/07/25 09:04:11;;;;;;;;;;;22.10;85.90;;;;;;5104294;28;19925;-93
2022/07/25 09:06:48;;;;;;;;;;;22.20;86.40;;;;;;5082619;28;20755;-93
2022/07/25 09:09:15;;;;;;;;;;;22.20;86.40;;;;;;5098385;28;19926;-93
2022/07/25 09:11:42;;;;;;;;;;;22.20;86.80;;;;;;5097013;28;20049;-92
2022/07/25 09:14:10;;;;;;;;;;;22.20;86.90;;;;;;5048103;27;19955;-92
2022/07/25 09:16:37;;;;;;;;;;;22.30;87.20;;;;;;5069524;27;19913;-93
2022/07/25 09:19:09;;;;;;;;;;;22.30;87.10;;;;;;5045194;27;19925;-93
2022/07/25 09:21:36;;;;;;;;;;;22.30;86.90;;;;;;5041370;28;19938;-93
2022/07/25 09:24:12;;;;;;;;;;;22.30;87.00;;;;;;5102204;28;20326;-94
2022/07/25 09:26:43;;;;;;;;;;;22.30;87.10;;;;;;5103470;27;19929;-93
2022/07/25 09:29:16;;;;;;;;;;;22.40;87.00;;;;;;5102207;27;19933;-93
2022/07/25 09:31:43;;;;;;;;;;;22.40;87.00;;;;;;5104731;28;19925;-93
2022/07/25 09:34:11;;;;;;;;;;;22.40;87.30;;;;;;5103572;27;19933;-94
2022/07/25 09:36:42;;;;;;;;;;;22.40;87.30;;;;;;5046268;27;19925;-94
2022/07/25 09:39:09;;;;;;;;;;;22.50;87.40;;;;;;5098391;27;19949;-94
2022/07/25 09:41:38;;;;;;;;;;;22.50;87.30;;;;;;5099235;28;19929;-94
2022/07/25 09:44:15;;;;;;;;;;;22.50;87.20;;;;;;5108230;27;19930;-93
2022/07/25 09:46:42;;;;;;;;;;;22.50;87.20;;;;;;5079235;27;20435;-93
2022/07/25 09:49:13;;;;;;;;;;;22.60;87.30;;;;;;5088751;28;20016;-92
2022/07/25 09:51:40;;;;;;;;;;;22.60;87.50;;;;;;5075884;27;20390;-92
2022/07/25 09:54:07;;;;;;;;;;;22.60;87.20;;;;;;5106159;27;19929;-93
2022/07/25 09:56:34;;;;;;;;;;;22.60;87.50;;;;;;5061232;27;19939;-95
2022/07/25 09:59:03;;;;;;;;;;;22.70;87.40;;;;;;5031897;27;19929;-92
2022/07/25 10:01:34;;;;;;;;;;;22.70;87.20;;;;;;5090050;28;19932;-93
2022/07/25 10:04:09;;;;;;;;;;;22.70;87.30;;;;;;5104721;28;19936;-94
2022/07/25 10:06:38;;;;;;;;;;;22.80;87.10;;;;;;5037493;27;19970;-93
2022/07/25 10:09:10;;;;;;;;;;;22.80;87.10;;;;;;5102662;27;20014;-93
2022/07/25 10:11:37;;;;;;;;;;;22.80;87.00;;;;;;5101912;27;20361;-93
2022/07/25 10:14:11;;;;;;;;;;;22.80;87.10;;;;;;5101711;28;19936;-94
2022/07/25 10:16:45;;;;;;;;;;;22.90;86.90;;;;;;5102750;28;19929;-92
2022/07/25 10:19:12;;;;;;;;;;;22.90;86.90;;;;;;5036232;28;19956;-94
2022/07/25 10:21:39;;;;;;;;;;;22.90;86.70;;;;;;5096353;28;19925;-94
2022/07/25 10:24:08;;;;;;;;;;;23.00;86.60;;;;;;5098897;27;19925;-93
2022/07/25 10:26:37;;;;;;;;;;;23.00;86.70;;;;;;5044909;27;20302;-93
2022/07/25 10:29:08;;;;;;;;;;;23.00;86.60;;;;;;5102637;27;19967;-94
2022/07/25 10:31:38;;;;;;;;;;;23.00;86.40;;;;;;5111212;27;19936;-94
2022/07/25 10:34:06;;;;;;;;;;;23.10;86.40;;;;;;5063285;27;19936;-92
2022/07/25 10:36:42;;;;;;;;;;;23.10;86.60;;;;;;5096430;28;19929;-94
2022/07/25 10:39:09;;;;;;;;;;;23.10;86.40;;;;;;5048081;27;19987;-94
2022/07/25 10:41:39;;;;;;;;;;;23.20;86.40;;;;;;5098716;28;19929;-93
2022/07/25 10:44:11;;;;;;;;;;;23.20;86.50;;;;;;5113058;27;20551;-94
2022/07/25 10:46:39;;;;;;;;;;;23.20;86.40;;;;;;5068407;27;19926;-94
2022/07/25 10:49:07;;;;;;;;;;;23.20;86.50;;;;;;5052731;27;20004;-96
2022/07/25 10:51:35;;;;;;;;;;;23.30;86.30;;;;;;5100988;28;19970;-95
2022/07/25 10:54:12;;;;;;;;;;;23.40;85.90;;;;;;5031443;28;19932;-94
2022/07/25 10:56:50;;;;;;;;;;;23.40;86.10;;;;;;5088540;28;19925;-94
2022/07/25 10:59:25;;;;;;;;;;;23.40;86.10;;;;;;5031273;27;19962;-95
2022/07/25 11:01:53;;;;;;;;;;;23.40;86.20;;;;;;5101296;28;19957;-95
2022/07/25 11:04:20;;;;;;;;;;;23.50;86.20;;;;;;5046440;27;19923;-95
2022/07/25 11:06:47;;;;;;;;;;;23.50;85.90;;;;;;5109864;27;19936;-94
2022/07/25 11:09:16;;;;;;;;;;;23.60;85.60;;;;;;5048237;27;19922;-94
2022/07/25 11:11:47;;;;;;;;;;;23.60;85.40;;;;;;5042983;28;19941;-94
2022/07/25 11:14:15;;;;;;;;;;;23.70;85.30;;;;;;5099432;28;19974;-94
2022/07/25 11:16:42;;;;;;;;;;;23.80;85.10;;;;;;5071705;28;19939;-94
2022/07/25 11:22:12;;;;;;;;;;;23.80;85.50;;;;;;5036964;28;19987;-80
2022/07/25 11:24:40;;;;;;;;;;;23.80;85.40;;;;;;5043178;28;19932;-79
2022/07/25 11:27:08;;;;;;;;;;;23.80;85.40;;;;;;5043861;28;19925;-80
2022/07/25 11:29:36;;;;;;;;;;;23.90;85.50;;;;;;5039392;28;19929;-80
2022/07/25 11:32:04;;;;;;;;;;;24.00;85.00;;;;;;5039082;28;20039;-80
2022/07/25 11:34:32;;;;;;;;;;;24.00;84.60;;;;;;5040937;28;19932;-80
2022/07/25 11:37:00;;;;;;;;;;;24.00;84.90;;;;;;5059326;28;20399;-80
2022/07/25 11:39:29;;;;;;;;;;;24.00;85.20;;;;;;5037342;28;19926;-79
2022/07/25 11:42:00;;;;;;;;;;;24.10;85.30;;;;;;5046066;28;19925;-79
2022/07/25 11:44:31;;;;;;;;;;;24.10;85.20;;;;;;5045260;28;19928;-80
2022/07/25 11:46:57;;;;;;;;;;;24.20;85.30;;;;;;5041072;28;19924;-80
2022/07/25 11:49:24;;;;;;;;;;;24.20;85.20;;;;;;5056529;28;19925;-80
2022/07/25 11:51:51;;;;;;;;;;;24.20;85.30;;;;;;5047925;28;19925;-80
2022/07/25 11:54:18;;;;;;;;;;;24.30;85.20;;;;;;5045397;28;20023;-80
2022/07/25 11:56:47;;;;;;;;;;;24.30;85.20;;;;;;5043924;28;19929;-80
2022/07/25 11:59:14;;;;;;;;;;;24.40;85.30;;;;;;5043999;28;19932;-79
2022/07/25 12:01:41;;;;;;;;;;;24.40;85.40;;;;;;5045097;28;19933;-80
2022/07/25 12:04:13;;;;;;;;;;;24.50;85.00;;;;;;5064700;28;19936;-79
2022/07/25 12:06:40;;;;;;;;;;;24.60;84.80;;;;;;5041667;28;19972;-80
2022/07/25 12:09:07;;;;;;;;;;;;;;;;;;5042858;28;19929;-79
2022/07/25 12:11:34;;;;;;;;;;;24.70;84.20;;;;;;5043855;28;19947;-79
2022/07/25 12:14:04;;;;;;;;;;;24.70;84.90;;;;;;5044155;28;19940;-80
2022/07/25 12:16:31;;;;;;;;;;;24.70;84.90;;;;;;5046116;28;19925;-79
2022/07/25 12:18:58;;;;;;;;;;;24.80;85.40;;;;;;5049745;28;20381;-79
2022/07/25 12:21:25;;;;;;;;;;;24.80;85.40;;;;;;4979678;28;20363;-79
2022/07/25 12:23:52;;;;;;;;;;;24.90;85.30;;;;;;5033879;28;19927;-79
2022/07/25 12:26:19;;;;;;;;;;;24.90;85.10;;;;;;4969714;28;20043;-79
2022/07/25 12:28:46;;;;;;;;;;;25.00;85.20;;;;;;5048734;28;19930;-79
2022/07/25 12:31:14;;;;;;;;;;;25.00;84.80;;;;;;4962959;28;19926;-79
2022/07/25 12:33:43;;;;;;;;;;;25.20;84.30;;;;;;5033182;28;19957;-79
2022/07/25 12:36:11;;;;;;;;;;;25.20;84.80;;;;;;4968547;28;19933;-79
2022/07/25 12:38:38;;;;;;;;;;;25.20;84.80;;;;;;4967379;28;19926;-80
2022/07/25 12:41:05;;;;;;;;;;;25.30;84.60;;;;;;4963402;28;19933;-80
2022/07/25 12:43:32;;;;;;;;;;;;;;;;;;4963323;28;19932;-80
2022/07/25 12:45:59;;;;;;;;;;;25.40;83.70;;;;;;5019485;28;20384;-79
2022/07/25 12:48:28;;;;;;;;;;;25.50;83.90;;;;;;4966724;28;19926;-80
2022/07/25 12:50:55;;;;;;;;;;;25.60;83.90;;;;;;5031830;28;20344;-82
2022/07/25 12:53:21;;;;;;;;;;;25.60;84.10;;;;;;4965919;28;20021;-81
2022/07/25 12:55:49;;;;;;;;;;;25.60;84.20;;;;;;5032537;28;19926;-81
2022/07/25 12:58:16;;;;;;;;;;;25.70;84.10;;;;;;4963007;28;19937;-81
2022/07/25 13:00:44;;;;;;;;;;;25.80;83.90;;;;;;4971397;28;19926;-81
2022/07/25 13:03:12;;;;;;;;;;;25.90;83.50;;;;;;5024599;28;19933;-82
2022/07/25 13:05:41;;;;;;;;;;;26.00;83.30;;;;;;4978425;28;19937;-81
2022/07/25 13:08:07;;;;;;;;;;;26.00;83.00;;;;;;5028244;28;19934;-81
2022/07/25 13:10:34;;;;;;;;;;;26.10;83.20;;;;;;5029237;28;19965;-82
2022/07/25 13:13:01;;;;;;;;;;;26.10;83.70;;;;;;4962211;28;19940;-81
2022/07/25 13:15:29;;;;;;;;;;;26.10;83.70;;;;;;4966653;28;20124;-81
2022/07/25 13:17:56;;;;;;;;;;;26.20;83.30;;;;;;4964710;28;19982;-82
2022/07/25 13:20:23;;;;;;;;;;;26.30;83.50;;;;;;4966716;28;20017;-81
2022/07/25 13:22:51;;;;;;;;;;;26.30;83.70;;;;;;4956592;28;20367;-82
2022/07/25 13:25:18;;;;;;;;;;;26.40;83.70;;;;;;4966538;28;19953;-82
2022/07/25 13:27:47;;;;;;;;;;;26.50;83.20;;;;;;4964497;28;20404;-82
2022/07/25 13:30:14;;;;;;;;;;;26.50;83.10;;;;;;5046419;28;20448;-81
2022/07/25 13:32:41;;;;;;;;;;;26.60;83.20;;;;;;4959479;28;19933;-82
2022/07/25 13:35:08;;;;;;;;;;;26.60;83.20;;;;;;5035389;28;19935;-81
2022/07/25 13:37:35;;;;;;;;;;;26.70;82.90;;;;;;4961529;28;19934;-81
2022/07/25 13:40:03;;;;;;;;;;;26.80;82.60;;;;;;5047059;28;19980;-81
2022/07/25 13:42:30;;;;;;;;;;;26.80;82.10;;;;;;5029133;28;19932;-81
2022/07/25 13:44:57;;;;;;;;;;;;;;;;;;4952060;28;19930;-81
2022/07/25 13:47:24;;;;;;;;;;;26.90;81.70;;;;;;4960686;28;20320;-85
2022/07/25 13:49:51;;;;;;;;;;;27.00;82.10;;;;;;5017592;28;19930;-83
2022/07/25 13:52:18;;;;;;;;;;;27.30;79.90;;;;;;4957481;28;19953;-83
2022/07/25 13:54:45;;;;;;;;;;;27.30;80.70;;;;;;4961295;28;20011;-83
2022/07/25 13:57:13;;;;;;;;;;;27.30;80.40;;;;;;5022417;28;19934;-82
2022/07/25 13:59:40;;;;;;;;;;;27.30;80.80;;;;;;4959337;28;19926;-82
2022/07/25 14:02:07;;;;;;;;;;;27.30;80.70;;;;;;4960474;28;19934;-79
2022/07/25 14:04:34;;;;;;;;;;;27.30;80.50;;;;;;4960508;28;20423;-82
2022/07/25 14:07:01;;;;;;;;;;;27.30;80.90;;;;;;4959858;28;19930;-82
2022/07/25 14:09:28;;;;;;;;;;;27.30;80.20;;;;;;4956421;28;19926;-82
2022/07/25 14:11:55;;;;;;;;;;;27.30;80.70;;;;;;4961324;28;19926;-82
2022/07/25 14:14:24;;;;;;;;;;;27.40;81.20;;;;;;4960674;28;19933;-82
2022/07/25 14:16:51;;;;;;;;;;;27.40;81.10;;;;;;4958787;28;19933;-82
2022/07/25 14:19:19;;;;;;;;;;;27.40;81.10;;;;;;5026998;28;19945;-82
2022/07/25 14:21:46;;;;;;;;;;;27.40;80.90;;;;;;4957041;28;19926;-82
2022/07/25 14:24:13;;;;;;;;;;;27.50;80.40;;;;;;4962568;28;19930;-82
2022/07/25 14:26:40;;;;;;;;;;;27.50;79.90;;;;;;5036140;28;19956;-82